Time;durP1;ratioP1;P1;durP2;ratioP2;P2;SDS_P1;SDS_P2;PMS_P1;PMS_P2;Temp;Humidity;BMP_temperature;BMP_pressure;BME280_temperature;BME280_humidity;BME280_pressure;Samples;Min_cycle;Max_cycle;Signal;HPM_P1;HPM_P2
2021/01/14 00:00:54;;;;;;;14.23;2.50;;;4.20;99.90;;;-146.47;100.00;66290.13;4979186;28;20229;-77
2021/01/14 00:03:39;;;;;;;8.10;2.53;;;4.20;99.90;;;-146.47;100.00;66290.13;4977488;28;20218;-77
2021/01/14 00:06:25;;;;;;;10.83;2.83;;;4.20;99.90;;;-146.47;100.00;66290.13;4976502;28;20655;-78
2021/01/14 00:09:10;;;;;;;13.60;5.13;;;4.20;99.90;;;-146.47;100.00;66290.13;4963907;28;20242;-77
2021/01/14 00:11:56;;;;;;;11.23;2.73;;;4.10;99.90;;;-146.47;100.00;66290.13;4976264;28;20703;-78
2021/01/14 00:14:41;;;;;;;9.03;2.40;;;4.10;99.90;;;-146.47;100.00;66290.13;4972171;28;20208;-77
2021/01/14 00:17:26;;;;;;;9.93;2.73;;;4.10;99.90;;;-146.47;100.00;66290.13;4972177;28;20649;-78
2021/01/14 00:20:14;;;;;;;9.67;2.60;;;4.10;99.90;;;-146.47;100.00;66290.13;4980781;28;20269;-76
2021/01/14 00:23:00;;;;;;;11.80;2.73;;;4.10;99.90;;;-146.47;100.00;66290.13;4969648;28;20217;-76
2021/01/14 00:25:46;;;;;;;6.83;2.43;;;4.10;99.90;;;-146.47;100.00;66290.13;4983428;28;20285;-75
2021/01/14 00:28:31;;;;;;;8.37;2.30;;;4.10;99.90;;;-146.47;100.00;66290.13;4986662;28;20214;-77
2021/01/14 00:31:20;;;;;;;7.33;2.63;;;4.10;99.90;;;-146.47;100.00;66290.13;4971395;28;20272;-77
2021/01/14 00:34:05;;;;;;;6.67;2.23;;;4.00;99.90;;;-146.47;100.00;66290.13;4966451;28;20210;-75
2021/01/14 00:39:55;;;;;;;6.63;2.10;;;4.00;99.90;;;-146.47;100.00;66290.13;4975427;28;20241;-77
2021/01/14 00:42:40;;;;;;;8.90;2.40;;;4.00;99.90;;;-146.47;100.00;66290.13;4974055;28;20246;-77
2021/01/14 00:45:26;;;;;;;7.13;2.63;;;4.00;99.90;;;-146.47;100.00;66290.13;4967861;28;20734;-76
2021/01/14 00:48:11;;;;;;;5.13;2.30;;;4.00;99.90;;;-146.47;100.00;66290.13;4968176;28;20200;-77
2021/01/14 00:50:57;;;;;;;4.57;1.47;;;3.90;99.90;;;-146.47;100.00;66290.13;4976543;28;20597;-76
2021/01/14 00:53:42;;;;;;;9.00;1.60;;;3.90;99.90;;;-146.47;100.00;66290.13;4978262;28;20696;-76
2021/01/14 00:56:32;;;;;;;7.03;1.60;;;3.90;99.90;;;-146.47;100.00;66290.13;4982524;28;20206;-76
2021/01/14 00:59:17;;;;;;;8.50;1.83;;;3.90;99.90;;;-146.47;100.00;66290.13;4969213;28;20214;-77
2021/01/14 01:02:04;;;;;;;6.67;1.97;;;3.80;99.90;;;-146.47;100.00;66290.13;4978345;28;20196;-77
2021/01/14 01:04:49;;;;;;;6.70;2.57;;;3.80;99.90;;;-146.47;100.00;66290.13;4972097;28;20206;-77
2021/01/14 01:07:34;;;;;;;6.60;2.90;;;3.80;99.90;;;-146.47;100.00;66290.13;4977344;28;20290;-77
2021/01/14 01:10:20;;;;;;;10.47;2.43;;;3.70;99.90;;;-146.47;100.00;66290.13;4981447;28;20283;-76
2021/01/14 01:13:06;;;;;;;4.63;2.40;;;3.60;99.90;;;-146.47;100.00;66290.13;4971375;28;20261;-77
2021/01/14 01:15:51;;;;;;;6.13;2.33;;;3.60;99.90;;;-146.47;100.00;66290.13;4965608;28;20692;-77
2021/01/14 01:18:36;;;;;;;5.07;2.07;;;3.50;99.90;;;-146.47;100.00;66290.13;4982438;28;20305;-75
2021/01/14 01:21:22;;;;;;;10.80;2.70;;;3.50;99.90;;;-146.47;100.00;66290.13;4972783;28;20237;-76
2021/01/14 01:24:08;;;;;;;6.07;2.30;;;3.40;99.90;;;-146.47;100.00;66290.13;4983387;28;20234;-77
2021/01/14 01:26:53;;;;;;;4.70;2.00;;;3.30;99.90;;;-146.47;100.00;66290.13;4971825;28;20711;-78
2021/01/14 01:29:39;;;;;;;5.60;2.20;;;3.30;99.90;;;-146.47;100.00;66290.13;4963568;28;20230;-77
2021/01/14 01:32:24;;;;;;;7.23;2.10;;;3.20;99.90;;;-146.47;100.00;66290.13;4977982;28;20330;-76
2021/01/14 01:35:11;;;;;;;11.60;2.20;;;3.10;99.90;;;-146.47;100.00;66290.13;4982552;28;20259;-77
2021/01/14 01:37:56;;;;;;;4.37;2.10;;;3.00;99.90;;;-146.47;100.00;66290.13;4965074;28;20271;-78
2021/01/14 01:40:41;;;;;;;7.47;2.07;;;3.00;99.90;;;-146.47;100.00;66290.13;4970672;28;20646;-77
2021/01/14 01:43:27;;;;;;;5.13;2.03;;;2.90;99.90;;;-146.47;100.00;66290.13;4973705;28;20210;-77
2021/01/14 01:46:24;;;;;;;7.07;2.10;;;2.90;99.90;;;-146.47;100.00;66290.13;4969240;28;20750;-76
2021/01/14 01:49:10;;;;;;;9.17;2.20;;;2.80;99.90;;;-146.47;100.00;66290.13;4980476;28;20707;-77
2021/01/14 01:51:55;;;;;;;6.07;2.17;;;2.80;99.90;;;-146.47;100.00;66290.13;4964475;28;20327;-77
2021/01/14 01:54:40;;;;;;;6.27;2.27;;;2.70;99.90;;;-146.47;100.00;66290.13;4973021;28;20206;-76
2021/01/14 01:57:25;;;;;;;11.50;2.27;;;2.90;99.90;;;-146.47;100.00;66290.13;4976083;28;20725;-77
2021/01/14 02:00:12;;;;;;;9.40;1.70;;;2.70;99.90;;;-146.47;100.00;66290.13;4973333;28;20327;-77
2021/01/14 02:02:58;;;;;;;8.20;1.60;;;2.70;99.90;;;-146.47;100.00;66290.13;4963881;28;20238;-77
2021/01/14 02:05:43;;;;;;;4.60;1.70;;;2.70;99.90;;;-146.47;100.00;66290.13;4964959;28;20313;-75
2021/01/14 02:08:40;;;;;;;9.60;2.70;;;2.60;99.90;;;-146.47;100.00;66290.13;4975787;28;20571;-77
2021/01/14 02:11:29;;;;;;;6.47;1.33;;;2.60;99.90;;;-146.47;100.00;66290.13;4981263;28;20213;-77
2021/01/14 02:14:19;;;;;;;19.47;3.53;;;2.60;99.90;;;-146.47;100.00;66290.13;4973636;28;20575;-77
2021/01/14 02:17:04;;;;;;;11.20;1.93;;;2.60;99.90;;;-146.47;100.00;66290.13;4966370;28;20310;-78
2021/01/14 02:19:53;;;;;;;5.43;1.10;;;2.60;99.90;;;-146.47;100.00;66290.13;4979927;28;20229;-77
2021/01/14 02:22:44;;;;;;;4.50;1.40;;;2.60;99.90;;;-146.47;100.00;66290.13;4980542;28;20217;-77
2021/01/14 02:25:45;;;;;;;10.47;2.03;;;2.60;99.90;;;-146.47;100.00;66290.13;4981987;28;20209;-79
2021/01/14 02:28:32;;;;;;;3.83;1.43;;;2.60;99.90;;;-146.47;100.00;66290.13;4979209;28;20245;-78
2021/01/14 02:31:19;;;;;;;4.50;2.40;;;2.60;99.90;;;-146.47;100.00;66290.13;4969038;28;20803;-77
2021/01/14 02:34:04;;;;;;;6.73;1.90;;;2.50;99.90;;;-146.47;100.00;66290.13;4978618;28;20194;-77
2021/01/14 02:36:49;;;;;;;6.23;2.10;;;2.50;99.90;;;-146.47;100.00;66290.13;4979332;28;20209;-80
2021/01/14 02:39:36;;;;;;;6.03;1.80;;;2.50;99.90;;;-146.47;100.00;66290.13;4980852;28;20246;-77
2021/01/14 02:42:22;;;;;;;8.83;1.80;;;2.50;99.90;;;-146.47;100.00;66290.13;4978874;28;20265;-78
2021/01/14 02:45:09;;;;;;;6.87;2.00;;;2.50;99.90;;;-146.47;100.00;66290.13;4970418;28;20233;-78
2021/01/14 02:47:57;;;;;;;5.00;1.53;;;2.50;99.90;;;-146.47;100.00;66290.13;4979750;28;20200;-77
2021/01/14 02:50:42;;;;;;;9.03;2.87;;;2.50;99.90;;;-146.47;100.00;66290.13;4981026;28;20229;-76
2021/01/14 02:53:30;;;;;;;5.60;2.00;;;2.50;99.90;;;-146.47;100.00;66290.13;4976443;28;20252;-77
2021/01/14 02:56:17;;;;;;;10.47;1.90;;;2.50;99.90;;;-146.47;100.00;66290.13;4984657;28;20209;-76
2021/01/14 02:59:03;;;;;;;7.53;2.20;;;2.50;99.90;;;-146.47;100.00;66290.13;4982598;28;20202;-75
2021/01/14 03:01:48;;;;;;;7.33;2.20;;;2.50;99.90;;;-146.47;100.00;66290.13;4983451;28;20217;-77
2021/01/14 03:04:33;;;;;;;5.83;2.10;;;2.50;99.90;;;-146.47;100.00;66290.13;4980330;28;20279;-76
2021/01/14 03:07:19;;;;;;;6.43;1.70;;;2.50;99.90;;;-146.47;100.00;66290.13;4986789;28;20253;-77
2021/01/14 03:10:06;;;;;;;4.77;1.60;;;2.50;99.90;;;-146.47;100.00;66290.13;4966598;28;20254;-77
2021/01/14 03:12:51;;;;;;;6.00;1.93;;;2.50;99.90;;;-146.47;100.00;66290.13;4979362;28;20213;-79
2021/01/14 03:15:38;;;;;;;3.80;1.47;;;2.50;99.90;;;-146.47;100.00;66290.13;4975508;28;20221;-77
2021/01/14 03:18:23;;;;;;;10.67;1.93;;;2.40;99.90;;;-146.47;100.00;66290.13;4969258;28;20202;-77
2021/01/14 03:21:08;;;;;;;8.10;1.50;;;2.40;99.90;;;-146.47;100.00;66290.13;4976446;28;20221;-78
2021/01/14 03:23:53;;;;;;;6.87;1.57;;;2.40;99.90;;;-146.47;100.00;66290.13;4977456;28;20326;-76
2021/01/14 03:26:40;;;;;;;7.33;1.67;;;2.40;99.90;;;-146.47;100.00;66290.13;4975459;28;20261;-77
2021/01/14 03:29:25;;;;;;;8.00;2.07;;;2.30;99.90;;;-146.47;100.00;66290.13;4983396;28;20246;-77
2021/01/14 03:32:11;;;;;;;7.57;1.80;;;2.40;99.90;;;-146.47;100.00;66290.13;4983109;28;20225;-78
2021/01/14 03:34:56;;;;;;;9.13;1.77;;;2.30;99.90;;;-146.47;100.00;66290.13;4980891;28;20250;-78
2021/01/14 03:37:43;;;;;;;10.13;2.27;;;2.30;99.90;;;-146.47;100.00;66290.13;4978612;28;20222;-76
2021/01/14 03:40:28;;;;;;;5.03;2.03;;;2.20;99.90;;;-146.47;100.00;66290.13;4973282;28;20605;-77
2021/01/14 03:43:13;;;;;;;9.27;2.80;;;2.20;99.90;;;-146.47;100.00;66290.13;4966561;28;20293;-76
2021/01/14 03:45:58;;;;;;;6.37;2.73;;;2.20;99.90;;;-146.47;100.00;66290.13;4979925;28;20205;-77
2021/01/14 03:48:46;;;;;;;8.23;2.57;;;2.10;99.90;;;-146.47;100.00;66290.13;4972372;28;20213;-76
2021/01/14 03:51:31;;;;;;;12.87;2.90;;;2.00;99.90;;;-146.47;100.00;66290.13;4973344;28;20202;-76
2021/01/14 03:54:21;;;;;;;8.77;2.23;;;2.00;99.90;;;-146.47;100.00;66290.13;4979236;28;20268;-77
2021/01/14 03:57:06;;;;;;;10.53;2.67;;;2.00;99.90;;;-146.47;100.00;66290.13;4971993;28;20196;-77
2021/01/14 03:59:51;;;;;;;6.43;2.43;;;1.90;99.90;;;-146.47;100.00;66290.13;4976932;28;20253;-78
2021/01/14 04:02:36;;;;;;;4.90;1.87;;;1.90;99.90;;;-146.47;100.00;66290.13;4974096;28;20221;-78
2021/01/14 04:05:23;;;;;;;9.87;1.90;;;1.80;99.90;;;-146.47;100.00;66290.13;4976179;28;20245;-76
2021/01/14 04:08:08;;;;;;;7.87;2.03;;;1.80;99.90;;;-146.47;100.00;66290.13;4982812;28;20202;-75
2021/01/14 04:10:53;;;;;;;4.70;1.80;;;1.80;99.90;;;-146.47;100.00;66290.13;4985201;28;20229;-77
2021/01/14 04:13:38;;;;;;;5.80;2.00;;;1.70;99.90;;;-146.47;100.00;66290.13;4991285;28;20202;-75
2021/01/14 04:16:23;;;;;;;4.90;1.47;;;1.70;99.90;;;-146.47;100.00;66290.13;4986288;28;20222;-75
2021/01/14 04:19:09;;;;;;;7.77;1.87;;;1.70;99.90;;;-146.47;100.00;66290.13;4977086;28;20226;-78
2021/01/14 04:21:55;;;;;;;4.43;1.80;;;1.60;99.90;;;-146.47;100.00;66290.13;4969721;28;20197;-76
2021/01/14 04:24:40;;;;;;;8.90;2.13;;;1.60;99.90;;;-146.47;100.00;66290.13;4963048;28;20214;-77
2021/01/14 04:27:25;;;;;;;3.83;1.80;;;1.60;99.90;;;-146.47;100.00;66290.13;4970461;28;20382;-78
2021/01/14 04:30:12;;;;;;;8.27;1.70;;;1.50;99.90;;;-146.47;100.00;66290.13;4971213;28;20302;-77
2021/01/14 04:33:08;;;;;;;7.87;1.87;;;1.50;99.90;;;-146.47;100.00;66290.13;4972441;28;20238;-77
2021/01/14 04:35:55;;;;;;;3.80;1.50;;;1.50;99.90;;;-146.47;100.00;66290.13;4982055;28;20205;-77
2021/01/14 04:38:41;;;;;;;3.77;1.40;;;1.50;99.90;;;-146.47;100.00;66290.13;4977473;28;20197;-76
2021/01/14 04:41:45;;;;;;;2.97;1.60;;;1.40;99.90;;;-146.47;100.00;66290.13;4979851;28;20286;-76
2021/01/14 04:44:29;;;;;;;3.40;1.17;;;1.40;99.90;;;-146.47;100.00;66290.13;4963488;28;20220;-77
2021/01/14 04:47:16;;;;;;;7.40;1.80;;;1.40;99.90;;;-146.47;100.00;66290.13;4965559;28;20274;-76
2021/01/14 04:50:02;;;;;;;6.90;1.50;;;1.40;99.90;;;-146.47;100.00;66290.13;4966684;28;20239;-78
2021/01/14 04:52:48;;;;;;;5.20;1.93;;;1.40;99.90;;;-146.47;100.00;66290.13;4983116;28;20286;-77
2021/01/14 04:55:43;;;;;;;2.70;1.50;;;1.40;99.90;;;-146.47;100.00;66290.13;4964738;28;20599;-78
2021/01/14 04:58:30;;;;;;;4.53;2.17;;;1.40;99.90;;;-146.47;100.00;66290.13;4978175;28;20249;-76
2021/01/14 05:01:19;;;;;;;5.10;1.93;;;1.30;99.90;;;-146.47;100.00;66290.13;4978982;28;20225;-76
2021/01/14 05:04:05;;;;;;;8.57;2.20;;;1.30;99.90;;;-146.47;100.00;66290.13;4979136;28;20238;-79
2021/01/14 05:06:57;;;;;;;8.47;1.90;;;1.30;99.90;;;-146.47;100.00;66290.13;4982806;28;20267;-78
2021/01/14 05:09:44;;;;;;;5.10;2.00;;;1.30;99.90;;;-146.47;100.00;66290.13;4976977;28;20270;-76
2021/01/14 05:12:34;;;;;;;7.43;2.40;;;1.20;99.90;;;-146.47;100.00;66290.13;4973546;28;20279;-75
2021/01/14 05:15:21;;;;;;;9.47;1.97;;;1.20;99.90;;;-146.47;100.00;66290.13;4963037;28;20337;-77
2021/01/14 05:18:06;;;;;;;5.80;1.80;;;1.10;99.90;;;-146.47;100.00;66290.13;4978415;28;20604;-77
2021/01/14 05:20:51;;;;;;;5.37;1.87;;;1.20;99.90;;;-146.47;100.00;66290.13;4971708;28;20747;-78
2021/01/14 05:23:37;;;;;;;3.40;1.60;;;1.20;99.90;;;-146.47;100.00;66290.13;4969683;28;20216;-77
2021/01/14 05:26:32;;;;;;;4.60;1.60;;;1.20;99.90;;;-146.47;100.00;66290.13;4973099;28;20285;-78
2021/01/14 05:29:20;;;;;;;7.90;2.00;;;1.10;99.90;;;-146.47;100.00;66290.13;4968571;28;20210;-78
2021/01/14 05:32:06;;;;;;;5.27;1.60;;;1.20;99.90;;;-146.47;100.00;66290.13;4972863;28;20355;-76
2021/01/14 05:34:51;;;;;;;6.20;1.73;;;1.20;99.90;;;-146.47;100.00;66290.13;4972051;28;20222;-76
2021/01/14 05:37:41;;;;;;;3.70;1.50;;;1.20;99.90;;;-146.47;100.00;66290.13;4973073;28;20198;-77
2021/01/14 05:40:29;;;;;;;11.60;1.30;;;1.20;99.90;;;-146.47;100.00;66290.13;4988314;28;20233;-76
2021/01/14 05:43:14;;;;;;;6.70;1.60;;;1.20;99.90;;;-146.47;100.00;66290.13;4974338;28;20654;-76
2021/01/14 05:46:16;;;;;;;5.83;1.60;;;1.20;99.90;;;-146.47;100.00;66290.13;4961667;28;20269;-77
2021/01/14 05:49:03;;;;;;;3.73;1.37;;;1.20;99.90;;;-146.47;100.00;66290.13;4959241;28;20226;-76
2021/01/14 05:51:55;;;;;;;9.60;1.90;;;1.20;99.90;;;-146.47;100.00;66290.13;4962029;28;20218;-77
2021/01/14 05:54:46;;;;;;;9.07;2.07;;;1.20;99.90;;;-146.47;100.00;66290.13;4974323;28;20202;-78
2021/01/14 05:57:33;;;;;;;6.77;2.07;;;1.20;99.90;;;-146.47;100.00;66290.13;4975988;28;20345;-77
2021/01/14 06:00:20;;;;;;;4.77;1.90;;;1.20;99.90;;;-146.47;100.00;66290.13;4964836;28;20230;-76
2021/01/14 06:03:25;;;;;;;4.70;1.30;;;1.20;99.90;;;-146.47;100.00;66290.13;4963268;28;20298;-77
2021/01/14 06:06:15;;;;;;;6.07;1.50;;;1.20;99.90;;;-146.47;100.00;66290.13;4965165;28;20274;-76
2021/01/14 06:09:07;;;;;;;6.17;1.83;;;1.20;99.90;;;-146.47;100.00;66290.13;4961591;28;20615;-76
2021/01/14 06:12:09;;;;;;;5.67;1.60;;;1.20;99.90;;;-146.47;100.00;66290.13;4979209;28;20258;-77
2021/01/14 06:14:54;;;;;;;6.33;1.80;;;1.30;99.90;;;-146.47;100.00;66290.13;4973218;28;20209;-77
2021/01/14 06:17:40;;;;;;;5.57;1.70;;;1.30;99.90;;;-146.47;100.00;66290.13;4980445;28;20221;-77
2021/01/14 06:20:28;;;;;;;3.00;1.40;;;1.30;99.90;;;-146.47;100.00;66290.13;4966401;28;20313;-78
2021/01/14 06:23:15;;;;;;;4.60;1.20;;;1.30;99.90;;;-146.47;100.00;66290.13;4972746;28;20230;-77
2021/01/14 06:26:00;;;;;;;6.77;1.33;;;1.30;99.90;;;-146.47;100.00;66290.13;4978113;28;20205;-77
2021/01/14 06:28:45;;;;;;;8.83;1.80;;;1.30;99.90;;;-146.47;100.00;66290.13;4979292;28;20217;-75
2021/01/14 06:31:30;;;;;;;4.90;1.83;;;1.30;99.90;;;-146.47;100.00;66290.13;4977314;28;20209;-76
2021/01/14 06:34:20;;;;;;;4.90;1.50;;;1.30;99.90;;;-146.47;100.00;66290.13;4974999;28;20257;-77
2021/01/14 06:37:10;;;;;;;6.13;1.67;;;1.30;99.90;;;-146.47;100.00;66290.13;4996086;28;20270;-76
2021/01/14 06:39:57;;;;;;;6.40;1.40;;;1.40;99.90;;;-146.47;100.00;66290.13;4994912;28;20225;-76
2021/01/14 06:42:55;;;;;;;2.93;1.83;;;1.40;99.90;;;-146.47;100.00;66290.13;4995080;28;20177;-75
2021/01/14 06:45:55;;;;;;;6.33;1.47;;;1.40;99.90;;;-146.47;100.00;66290.13;4977283;28;20309;-77
2021/01/14 06:48:58;;;;;;;2.90;1.23;;;1.40;99.90;;;-146.47;100.00;66290.13;4970958;28;20577;-78
2021/01/14 06:51:56;;;;;;;3.73;1.50;;;1.40;99.90;;;-146.47;100.00;66290.13;4976542;28;20225;-77
2021/01/14 06:54:44;;;;;;;5.30;1.57;;;1.40;99.90;;;-146.47;100.00;66290.13;4971527;28;20245;-77
2021/01/14 06:57:36;;;;;;;3.90;1.53;;;1.40;99.90;;;-146.47;100.00;66290.13;4975460;28;20213;-77
2021/01/14 07:00:24;;;;;;;3.87;1.60;;;1.40;99.90;;;-146.47;100.00;66290.13;4975156;28;20234;-77
2021/01/14 07:03:25;;;;;;;6.10;1.60;;;1.40;99.90;;;-146.47;100.00;66290.13;4970349;28;20275;-78
2021/01/14 07:06:22;;;;;;;8.10;2.20;;;1.40;99.90;;;-146.47;100.00;66290.13;4973702;28;20584;-77
2021/01/14 07:09:20;;;;;;;3.83;1.23;;;1.50;99.90;;;-146.47;100.00;66290.13;4976719;28;20197;-79
2021/01/14 07:12:13;;;;;;;10.13;1.83;;;1.40;99.90;;;-146.47;100.00;66290.13;4976399;28;20896;-76
2021/01/14 07:15:06;;;;;;;4.93;1.73;;;1.40;99.90;;;-146.47;100.00;66290.13;4977119;28;20242;-77
2021/01/14 07:18:03;;;;;;;4.97;1.50;;;1.40;99.90;;;-146.47;100.00;66290.13;4976899;28;20217;-78
2021/01/14 07:20:48;;;;;;;8.67;1.53;;;1.50;99.90;;;-146.47;100.00;66290.13;4974242;28;20218;-77
2021/01/14 07:23:44;;;;;;;7.20;1.90;;;1.50;99.90;;;-146.47;100.00;66290.13;4971449;28;20254;-78
2021/01/14 07:26:33;;;;;;;4.77;1.63;;;1.50;99.90;;;-146.47;100.00;66290.13;4973591;28;20626;-78
2021/01/14 07:29:19;;;;;;;11.20;2.63;;;1.50;99.90;;;-146.47;100.00;66290.13;4968629;28;20703;-77
2021/01/14 07:32:05;;;;;;;5.47;2.30;;;1.50;99.90;;;-146.47;100.00;66290.13;4964099;28;20718;-77
2021/01/14 07:34:50;;;;;;;6.80;2.20;;;1.50;99.90;;;-146.47;100.00;66290.13;4967335;28;20222;-76
2021/01/14 07:37:53;;;;;;;7.73;1.77;;;1.50;99.90;;;-146.47;100.00;66290.13;4973871;28;20298;-78
2021/01/14 07:40:41;;;;;;;4.77;2.37;;;1.50;99.90;;;-146.47;100.00;66290.13;4977463;28;20697;-77
2021/01/14 07:43:32;;;;;;;3.67;2.00;;;1.50;99.90;;;-146.47;100.00;66290.13;4972446;28;20246;-78
2021/01/14 07:46:25;;;;;;;7.60;2.17;;;1.50;99.90;;;-146.47;100.00;66290.13;4967988;28;20257;-76
2021/01/14 07:49:27;;;;;;;10.00;2.53;;;1.50;99.90;;;-146.47;100.00;66290.13;4974304;28;20205;-77
2021/01/14 07:52:28;;;;;;;8.07;2.40;;;1.50;99.90;;;-146.47;100.00;66290.13;4973997;28;20266;-77
2021/01/14 07:55:26;;;;;;;5.03;2.37;;;1.50;99.90;;;-146.47;100.00;66290.13;4974712;28;20201;-76
2021/01/14 07:58:22;;;;;;;13.67;2.67;;;1.60;99.90;;;-146.47;100.00;66290.13;4962031;28;20613;-78
2021/01/14 08:01:10;;;;;;;9.17;2.00;;;1.60;99.90;;;-146.47;100.00;66290.13;4972832;28;20229;-76
2021/01/14 08:03:55;;;;;;;4.50;1.90;;;1.50;99.90;;;-146.47;100.00;66290.13;4970042;28;20261;-78
2021/01/14 08:06:45;;;;;;;8.80;2.37;;;1.60;99.90;;;-146.47;100.00;66290.13;4964007;28;20286;-77
2021/01/14 08:09:41;;;;;;;9.30;2.73;;;1.60;99.90;;;-146.47;100.00;66290.13;4967673;28;20238;-76
2021/01/14 08:12:29;;;;;;;8.10;2.20;;;1.60;99.90;;;-146.47;100.00;66290.13;4966023;28;20209;-77
2021/01/14 08:15:35;;;;;;;9.20;2.50;;;1.60;99.90;;;-146.47;100.00;66290.13;4964538;28;20287;-76
2021/01/14 08:18:20;;;;;;;8.00;1.97;;;1.60;99.90;;;-146.47;100.00;66290.13;4972185;28;20204;-76
2021/01/14 08:21:28;;;;;;;8.43;2.00;;;1.60;99.90;;;-146.47;100.00;66290.13;4958449;28;20253;-77
2021/01/14 08:24:37;;;;;;;6.93;2.00;;;1.70;99.90;;;-146.47;100.00;66290.13;4968250;28;20810;-78
2021/01/14 08:27:32;;;;;;;5.77;1.93;;;1.70;99.90;;;-146.47;100.00;66290.13;4969862;28;20268;-76
2021/01/14 08:30:19;;;;;;;7.07;2.23;;;1.60;99.90;;;-146.47;100.00;66290.13;4969526;28;20246;-78
2021/01/14 08:33:08;;;;;;;8.87;2.00;;;1.70;99.90;;;-146.47;100.00;66290.13;4966733;28;20210;-77
2021/01/14 08:36:04;;;;;;;9.43;2.20;;;1.70;99.90;;;-146.47;100.00;66290.13;4972775;28;20225;-77
2021/01/14 08:38:53;;;;;;;5.60;2.03;;;1.80;99.90;;;-146.47;100.00;66290.13;4975071;28;20258;-78
2021/01/14 08:41:38;;;;;;;5.83;2.20;;;1.80;99.90;;;-146.47;100.00;66290.13;4965842;28;20209;-76
2021/01/14 08:44:30;;;;;;;5.10;2.00;;;1.90;99.90;;;-146.47;100.00;66290.13;4965882;28;20214;-78
2021/01/14 08:47:15;;;;;;;7.77;3.33;;;1.90;99.90;;;-146.47;100.00;66290.13;4977670;28;20324;-78
2021/01/14 08:50:05;;;;;;;6.53;2.27;;;2.00;99.90;;;-146.47;100.00;66290.13;4970121;28;20286;-77
2021/01/14 08:52:54;;;;;;;3.37;1.97;;;2.00;99.90;;;-146.47;100.00;66290.13;4966758;28;20205;-77
2021/01/14 08:55:40;;;;;;;4.77;2.10;;;2.00;99.90;;;-146.47;100.00;66290.13;4976432;28;20201;-76
2021/01/14 08:58:42;;;;;;;6.20;2.10;;;2.20;99.90;;;-146.47;100.00;66290.13;4977125;28;20209;-78
2021/01/14 09:01:32;;;;;;;5.53;2.20;;;2.10;99.90;;;-146.47;100.00;66290.13;4976174;28;20257;-77
2021/01/14 09:04:18;;;;;;;8.63;2.83;;;2.20;99.90;;;-146.47;100.00;66290.13;4973349;28;20294;-78
2021/01/14 09:07:03;;;;;;;7.77;2.90;;;2.30;99.90;;;-146.47;100.00;66290.13;4976079;28;20275;-78
2021/01/14 09:09:52;;;;;;;4.80;2.60;;;2.30;99.90;;;-146.47;100.00;66290.13;4966074;28;20279;-76
2021/01/14 09:12:38;;;;;;;6.40;3.00;;;2.40;99.90;;;-146.47;100.00;66290.13;4964518;28;20334;-77
2021/01/14 09:15:26;;;;;;;7.90;2.70;;;2.50;99.90;;;-146.47;100.00;66290.13;4975334;28;20252;-76
2021/01/14 09:18:13;;;;;;;12.13;3.27;;;2.50;99.90;;;-146.47;100.00;66290.13;4978189;28;20632;-77
2021/01/14 09:21:00;;;;;;;14.10;3.27;;;2.60;99.90;;;-146.47;100.00;66290.13;4975244;28;20228;-77
2021/01/14 09:23:45;;;;;;;9.50;3.53;;;2.60;99.90;;;-146.47;100.00;66290.13;4975772;28;20641;-75
2021/01/14 09:26:30;;;;;;;10.23;3.27;;;2.70;99.90;;;-146.47;100.00;66290.13;4977463;28;20256;-76
2021/01/14 09:29:18;;;;;;;6.43;2.87;;;2.70;99.90;;;-146.47;100.00;66290.13;4968638;28;20229;-77
2021/01/14 09:32:12;;;;;;;7.70;2.93;;;2.80;99.90;;;-146.47;100.00;66290.13;4971674;28;20205;-77
2021/01/14 09:35:13;;;;;;;8.80;3.17;;;2.80;99.90;;;-146.47;100.00;66290.13;4982232;28;20767;-78
2021/01/14 09:37:59;;;;;;;7.97;3.27;;;2.90;99.90;;;-146.47;100.00;66290.13;4971160;28;20221;-77
2021/01/14 09:40:55;;;;;;;10.30;3.13;;;2.80;99.90;;;-146.47;100.00;66290.13;4976199;28;20233;-78
2021/01/14 09:43:42;;;;;;;8.33;3.50;;;2.90;99.90;;;-146.47;100.00;66290.13;4963543;28;20320;-76
2021/01/14 09:46:30;;;;;;;10.80;3.53;;;3.00;99.90;;;-146.47;100.00;66290.13;4972589;28;20198;-77
2021/01/14 09:49:19;;;;;;;6.57;3.20;;;3.00;99.90;;;-146.47;100.00;66290.13;4978859;28;20228;-76
2021/01/14 09:52:04;;;;;;;9.57;3.37;;;3.10;99.90;;;-146.47;100.00;66290.13;4971522;28;20214;-77
2021/01/14 09:54:51;;;;;;;6.83;3.10;;;3.20;99.90;;;-146.47;100.00;66290.13;4966959;28;20193;-78
2021/01/14 09:57:45;;;;;;;7.13;3.50;;;3.20;99.90;;;-146.47;100.00;66290.13;4969182;28;20278;-78
2021/01/14 10:00:32;;;;;;;10.67;3.50;;;3.30;99.90;;;-146.47;100.00;66290.13;4972881;28;20245;-75
2021/01/14 10:03:22;;;;;;;12.57;3.80;;;3.40;99.90;;;-146.47;100.00;66290.13;4972390;28;20242;-77
2021/01/14 10:06:08;;;;;;;11.20;3.50;;;3.40;99.90;;;-146.47;100.00;66290.13;4969461;28;20214;-77
2021/01/14 10:08:54;;;;;;;6.47;3.77;;;3.50;99.90;;;-146.47;100.00;66290.13;4981370;28;20213;-79
2021/01/14 10:11:39;;;;;;;8.90;4.03;;;3.50;99.90;;;-146.47;100.00;66290.13;4974586;28;20291;-77
2021/01/14 10:14:24;;;;;;;10.30;3.53;;;3.60;99.90;;;-146.47;100.00;66290.13;4966549;28;20265;-78
2021/01/14 10:17:10;;;;;;;10.53;3.53;;;3.70;99.90;;;-146.47;100.00;66290.13;4960480;28;20234;-77
2021/01/14 10:20:01;;;;;;;10.37;3.97;;;3.80;99.90;;;-146.47;100.00;66290.13;4959748;28;20221;-78
2021/01/14 10:22:48;;;;;;;7.80;3.10;;;3.90;99.90;;;-146.47;100.00;66290.13;4960620;28;20287;-77
2021/01/14 10:25:35;;;;;;;5.47;2.77;;;3.90;99.90;;;-146.47;100.00;66290.13;4964385;28;20210;-77
2021/01/14 10:28:20;;;;;;;8.60;4.03;;;4.10;99.90;;;-146.47;100.00;66290.13;4971213;28;20236;-77
2021/01/14 10:31:05;;;;;;;9.07;3.37;;;4.20;99.90;;;-146.47;100.00;66290.13;4961447;28;20307;-77
2021/01/14 10:33:56;;;;;;;6.93;3.67;;;4.30;99.90;;;-146.47;100.00;66290.13;4967267;28;20391;-77
2021/01/14 10:36:48;;;;;;;6.90;3.10;;;4.40;99.90;;;-146.47;100.00;66290.13;4961956;28;20925;-77
2021/01/14 10:39:42;;;;;;;7.90;3.47;;;4.60;99.90;;;-146.47;100.00;66290.13;4978128;28;20576;-77
2021/01/14 10:42:34;;;;;;;6.93;3.27;;;4.80;99.90;;;-146.47;100.00;66290.13;4972279;28;20209;-77
2021/01/14 10:45:24;;;;;;;7.37;3.60;;;4.90;99.90;;;-146.47;100.00;66290.13;4957075;28;20213;-77
2021/01/14 10:48:13;;;;;;;9.30;3.20;;;5.10;99.90;;;-146.47;100.00;66290.13;4973516;28;20234;-77
2021/01/14 10:50:58;;;;;;;8.67;3.27;;;5.30;99.90;;;-146.47;100.00;66290.13;4958144;28;20225;-77
2021/01/14 10:53:45;;;;;;;8.93;3.23;;;5.60;99.90;;;-146.47;100.00;66290.13;4968958;28;20300;-77
2021/01/14 10:56:31;;;;;;;6.90;3.30;;;5.60;99.90;;;-146.47;100.00;66290.13;4969052;28;20286;-77
2021/01/14 10:59:24;;;;;;;8.87;3.00;;;5.70;99.90;;;-146.47;100.00;66290.13;4969501;28;20253;-79
2021/01/14 11:02:09;;;;;;;11.30;3.37;;;5.80;99.90;;;-146.47;100.00;66290.13;4969096;28;20217;-77
2021/01/14 11:04:55;;;;;;;8.50;3.30;;;5.90;99.90;;;-146.47;100.00;66290.13;4964307;28;20266;-78
2021/01/14 11:07:41;;;;;;;7.67;3.63;;;6.00;99.90;;;-146.47;100.00;66290.13;4974205;28;20237;-77
2021/01/14 11:10:26;;;;;;;6.97;2.93;;;6.00;99.90;;;-146.47;100.00;66290.13;4982546;28;20257;-77
2021/01/14 11:13:15;;;;;;;11.97;3.77;;;6.00;99.90;;;-146.47;100.00;66290.13;4982192;28;20206;-77
2021/01/14 11:16:00;;;;;;;4.60;3.07;;;6.10;99.90;;;-146.47;100.00;66290.13;4979523;28;20249;-76
2021/01/14 11:18:47;;;;;;;7.33;3.40;;;6.10;99.90;;;-146.47;100.00;66290.13;4978448;28;20233;-78
2021/01/14 11:21:33;;;;;;;8.67;3.57;;;6.10;99.90;;;-146.47;100.00;66290.13;4979099;28;20205;-79
2021/01/14 11:24:19;;;;;;;8.33;3.73;;;6.10;99.90;;;-146.47;100.00;66290.13;4965227;28;20218;-78
2021/01/14 11:27:05;;;;;;;5.77;2.80;;;6.10;99.90;;;-146.47;100.00;66290.13;4977541;28;20218;-76
2021/01/14 11:29:50;;;;;;;4.33;3.00;;;6.10;99.90;;;-146.47;100.00;66290.13;4979716;28;20288;-76
2021/01/14 11:32:35;;;;;;;8.07;3.57;;;6.20;99.90;;;-146.47;100.00;66290.13;4985653;28;20200;-77
2021/01/14 11:35:21;;;;;;;8.03;3.47;;;6.20;99.90;;;-146.47;100.00;66290.13;4995713;28;20200;-75